Castlebar Airport

Jump to: basic info | weather | comments

Related pages: nearby airports | nearby navaids | notams | map

Basic information (top)

Codes: CLB EICB
Location: lon 53.848400, lat -9.280370
Status: small_airport

Weather (top)

Current conditions for Ireland West Knock Airport 17nm (31km) ENE (rec'd 2015/01/29 14:00Z):

EIKN 291400Z 33021G31KT 310V010 2500 -SHSN BKN003 BKN016CB 00/M00 Q0984 NOSIG

Airport forecast for Ireland West Knock Airport 17nm (31km) ENE (rec'd 2015/01/29 12:25Z):

TAF EIKN 291100Z 2912/3012 29017G29KT 9999 SCT010 SCT020 
      TEMPO 2912/2914 2000 -SHSN BKN003 SCT015CB PROB30 
      TEMPO 2912/2914 0500 SHSN BKN002 
      TEMPO 2914/2918 3000 -SHSNRA BKN006 SCT015CB 
      TEMPO 2918/3006 4000 SHRA SCT017CB BKN020 
      BECMG 2919/2921 30027G43KT 
      BECMG 2922/2924 32023G37KT 
      BECMG 3001/3003 31017G29KT

Latest comments (top)

No longer exists.: This airport was closed in 2001 and the ... [read]

fv: fg [read]

More... (top)

See also NOTAMs and nearby airports and navaids, or visit the Castlebar Airport page at the main OurAirports website..